Murray, Idaho
Current Conditions -  °F | °C
As of 8:42 AM on Saturday 20 Dec 2014 (Local Time) from KMLP Reporting Station
Light Snow Light Snow  
Wind Chill: 22°   Ceiling: 200
Heat Index: 27°   Visibility: 0.25mi
Dew Point: 24°   Wind: 5mph
Humidity: 89%   Direction: NA
Pressure: 29.8"   Gusts: NA
Location:  47.63°N, 115.86°W
Report Text: KMLP 201642Z AUTO VRB04KT 1/4SM -SN FZFG VV002 M03/M04 A2980 RMK AO2 P0000 T10281044
Loading
Personal Weather Stations






























Interactive Weather Map New forecast layout! Learn more

10-Day Weather Forecast

Advertisements
Track Severe Weather on mobile